createdAt,value
2022-10-07T10:26:32.640Z,20.68
2022-10-07T10:29:55.130Z,20.58
2022-10-07T10:33:21.698Z,20.77
2022-10-07T10:36:24.251Z,20.90
2022-10-07T10:39:26.540Z,21.08
2022-10-07T10:42:59.325Z,20.98
2022-10-07T10:46:25.763Z,21.07
2022-10-07T10:49:42.814Z,21.30
2022-10-07T10:52:56.128Z,20.87
2022-10-07T10:56:29.321Z,20.91
2022-10-07T10:59:47.338Z,21.14
2022-10-07T11:03:08.410Z,21.42
2022-10-07T11:06:13.630Z,21.22
2022-10-07T11:09:30.824Z,21.40
2022-10-07T11:12:39.721Z,21.31
2022-10-07T11:15:57.074Z,21.59
2022-10-07T11:19:01.824Z,21.47
2022-10-07T11:22:04.384Z,21.42
2022-10-07T11:25:36.871Z,21.54
2022-10-07T11:28:41.056Z,21.45
2022-10-07T11:31:48.202Z,21.34
2022-10-07T11:34:56.076Z,21.86
2022-10-07T11:37:58.677Z,21.64
2022-10-07T11:41:20.386Z,21.62
2022-10-07T11:44:29.035Z,21.62
2022-10-07T11:47:42.424Z,21.57
2022-10-07T11:50:52.805Z,22.04
2022-10-07T11:53:58.174Z,22.05
2022-10-07T11:57:00.908Z,22.30
2022-10-07T12:00:08.167Z,22.62
2022-10-07T12:03:36.464Z,22.66
2022-10-07T12:06:38.908Z,22.61
2022-10-07T12:10:03.615Z,22.54
2022-10-07T12:13:12.662Z,22.86
2022-10-07T12:16:23.996Z,23.05
2022-10-07T12:19:26.516Z,23.46
2022-10-07T12:22:28.872Z,23.71
2022-10-07T12:25:32.544Z,24.51
2022-10-07T12:28:41.849Z,25.84
2022-10-07T12:31:46.387Z,25.52
2022-10-07T12:34:49.000Z,25.62
2022-10-07T12:38:02.513Z,25.78
2022-10-07T12:41:34.448Z,26.20
2022-10-07T12:44:52.836Z,26.46
2022-10-07T12:47:56.538Z,25.86
2022-10-07T12:51:00.869Z,25.72
2022-10-07T12:54:20.830Z,26.46
2022-10-07T12:57:32.948Z,26.16
2022-10-07T13:00:35.797Z,26.17
2022-10-07T13:03:56.324Z,27.07
2022-10-07T13:07:17.844Z,26.64
2022-10-07T13:10:44.676Z,27.39
2022-10-07T13:13:59.214Z,27.89
2022-10-07T13:17:17.019Z,27.29
2022-10-07T13:20:28.448Z,27.09
2022-10-07T13:23:31.194Z,27.89
2022-10-07T13:26:33.573Z,28.46
2022-10-07T13:29:37.830Z,28.58
2022-10-07T13:32:40.209Z,29.07
2022-10-07T13:35:42.997Z,28.87
2022-10-07T13:38:47.221Z,28.27
2022-10-07T13:41:59.739Z,27.82
2022-10-07T13:45:02.709Z,27.89
2022-10-07T13:48:05.300Z,27.77
2022-10-07T13:51:07.871Z,27.00
2022-10-07T13:54:20.211Z,27.88
2022-10-07T13:57:23.569Z,28.52
2022-10-07T14:00:27.046Z,29.13
2022-10-07T14:03:29.416Z,28.80
2022-10-07T14:06:45.177Z,29.08
2022-10-07T14:09:50.951Z,28.02
2022-10-07T14:13:03.239Z,28.14
2022-10-07T14:16:05.884Z,28.75
2022-10-07T14:19:20.886Z,28.86
2022-10-07T14:22:30.108Z,28.56
2022-10-07T14:25:37.841Z,28.27
2022-10-07T14:28:42.294Z,28.43
2022-10-07T14:32:03.253Z,28.37
2022-10-07T14:35:23.947Z,27.93
2022-10-07T14:38:27.372Z,27.23
2022-10-07T14:41:30.499Z,26.79
2022-10-07T14:44:32.920Z,26.98
2022-10-07T14:47:36.307Z,26.75
2022-10-07T14:50:39.706Z,26.64
2022-10-07T14:53:42.347Z,26.55
2022-10-07T14:56:44.743Z,26.16
2022-10-07T14:59:49.963Z,25.76
2022-10-07T15:02:54.537Z,25.62
2022-10-07T15:05:58.113Z,24.71
2022-10-07T15:09:00.499Z,24.14
2022-10-07T15:12:02.949Z,23.52
2022-10-07T15:15:05.908Z,23.15
2022-10-07T15:18:09.943Z,22.76
2022-10-07T15:21:12.707Z,22.31
2022-10-07T15:24:15.057Z,21.83
2022-10-07T15:27:19.038Z,21.51
2022-10-07T15:30:21.412Z,21.22
2022-10-07T15:33:23.744Z,20.88
2022-10-07T15:36:27.377Z,20.39
2022-10-07T15:39:29.738Z,20.00
2022-10-07T15:42:32.151Z,19.96
2022-10-07T15:45:34.853Z,19.67
2022-10-07T15:48:38.345Z,19.54
2022-10-07T15:51:40.906Z,19.41
2022-10-07T15:54:46.456Z,19.32
2022-10-07T15:57:48.845Z,19.22
2022-10-07T16:01:01.772Z,19.00
2022-10-07T16:04:05.369Z,18.85
2022-10-07T16:07:10.609Z,18.72
2022-10-07T16:10:13.413Z,18.41
2022-10-07T16:13:17.881Z,18.39
2022-10-07T16:16:23.447Z,18.44
2022-10-07T16:19:26.592Z,18.48
2022-10-07T16:22:29.084Z,18.41
2022-10-07T16:25:31.396Z,18.65
2022-10-07T16:28:53.156Z,18.31
2022-10-07T16:31:59.170Z,17.97
2022-10-07T16:35:01.730Z,17.51
2022-10-07T16:38:04.893Z,17.47
2022-10-07T16:41:07.256Z,17.37
2022-10-07T16:44:10.158Z,17.12
2022-10-07T16:47:12.912Z,16.93
2022-10-07T16:50:15.940Z,17.07
2022-10-07T16:53:18.361Z,17.08
2022-10-07T16:56:21.469Z,16.84
2022-10-07T16:59:24.587Z,16.83
2022-10-07T17:02:29.819Z,16.78
2022-10-07T17:05:32.224Z,16.73
2022-10-07T17:08:39.966Z,16.49
2022-10-07T17:11:45.115Z,16.28
2022-10-07T17:14:47.575Z,16.10
2022-10-07T17:17:52.941Z,16.02
2022-10-07T17:20:56.100Z,15.96
2022-10-07T17:23:58.641Z,16.00
2022-10-07T17:27:00.985Z,16.02
2022-10-07T17:30:03.947Z,15.79
2022-10-07T17:33:07.003Z,15.75
2022-10-07T17:36:11.002Z,15.69
2022-10-07T17:39:13.779Z,15.40
2022-10-07T17:42:16.190Z,15.43
2022-10-07T17:45:18.696Z,15.29
2022-10-07T17:48:21.163Z,15.35
2022-10-07T17:51:27.359Z,15.40
2022-10-07T17:54:29.722Z,15.38
2022-10-07T17:57:32.202Z,15.41
2022-10-07T18:00:34.670Z,15.37
2022-10-07T18:03:38.199Z,15.43
2022-10-07T18:06:43.152Z,15.12
2022-10-07T18:09:45.881Z,15.08
2022-10-07T18:13:06.615Z,15.00
2022-10-07T18:16:09.157Z,14.66
2022-10-07T18:19:11.589Z,14.34
2022-10-07T18:22:13.990Z,14.27
2022-10-07T18:25:16.470Z,14.33
2022-10-07T18:28:18.950Z,14.26
2022-10-07T18:31:21.480Z,14.08
2022-10-07T18:34:24.635Z,14.08
2022-10-07T18:37:27.103Z,14.09
2022-10-07T18:40:30.397Z,14.07
2022-10-07T18:43:33.437Z,14.09
2022-10-07T18:46:35.920Z,14.01
2022-10-07T18:49:38.444Z,14.02
2022-10-07T18:52:40.806Z,13.79
2022-10-07T18:55:43.334Z,13.81
2022-10-07T18:58:47.663Z,13.73
2022-10-07T19:01:51.117Z,13.40
2022-10-07T19:04:53.756Z,13.61
2022-10-07T19:07:56.198Z,13.75
2022-10-07T19:11:09.327Z,13.83
2022-10-07T19:14:11.984Z,13.87
2022-10-07T19:17:14.347Z,13.72
2022-10-07T19:20:18.027Z,13.72
2022-10-07T19:23:20.420Z,13.51
2022-10-07T19:26:27.870Z,13.55
2022-10-07T19:29:32.046Z,13.36
2022-10-07T19:32:34.534Z,13.28
2022-10-07T19:35:37.935Z,13.29
2022-10-07T19:38:44.197Z,13.33
2022-10-07T19:41:47.134Z,13.28
2022-10-07T19:44:49.608Z,12.96
2022-10-07T19:47:51.975Z,12.84
2022-10-07T19:50:58.034Z,12.86
2022-10-07T19:54:02.109Z,12.89
2022-10-07T19:57:04.495Z,12.73
2022-10-07T20:00:07.458Z,12.77
2022-10-07T20:03:14.707Z,12.64
2022-10-07T20:06:17.377Z,12.58
2022-10-07T20:09:20.063Z,12.61
2022-10-07T20:12:22.426Z,12.58
2022-10-07T20:15:24.796Z,12.63
2022-10-07T20:18:27.274Z,12.55
2022-10-07T20:21:30.461Z,12.50
2022-10-07T20:24:32.933Z,12.58
2022-10-07T20:27:35.324Z,12.49
2022-10-07T20:30:37.677Z,12.39
2022-10-07T20:33:43.176Z,12.34
2022-10-07T20:36:45.719Z,12.37
2022-10-07T20:40:06.730Z,12.00
2022-10-07T20:43:10.128Z,12.10
2022-10-07T20:46:12.733Z,11.99
2022-10-07T20:49:24.309Z,12.14
2022-10-07T20:52:29.160Z,12.13
2022-10-07T20:55:36.180Z,12.08
2022-10-07T20:58:38.986Z,12.15
2022-10-07T21:01:42.915Z,12.12
2022-10-07T21:04:49.364Z,12.09
2022-10-07T21:07:54.653Z,11.96
2022-10-07T21:11:02.046Z,12.16
2022-10-07T21:14:04.868Z,12.06
2022-10-07T21:17:07.346Z,12.10
2022-10-07T21:20:09.830Z,12.17
2022-10-07T21:23:12.252Z,12.12
2022-10-07T21:26:15.250Z,12.03
2022-10-07T21:29:18.896Z,11.93
2022-10-07T21:32:21.299Z,11.86
2022-10-07T21:35:23.762Z,11.67
2022-10-07T21:38:27.059Z,11.13
2022-10-07T21:41:31.232Z,10.75
2022-10-07T21:44:34.793Z,10.52
2022-10-07T21:47:37.176Z,10.44
2022-10-07T21:50:39.576Z,10.63
2022-10-07T21:53:41.933Z,10.67
2022-10-07T21:56:46.117Z,10.90
2022-10-07T21:59:48.831Z,10.90
2022-10-07T22:02:52.615Z,10.84
2022-10-07T22:06:03.489Z,10.83
2022-10-07T22:09:05.808Z,10.82
2022-10-07T22:12:08.809Z,10.81
2022-10-07T22:15:11.167Z,10.93
2022-10-07T22:18:14.275Z,10.92
2022-10-07T22:21:19.586Z,10.84
2022-10-07T22:24:23.537Z,10.93
2022-10-07T22:27:26.156Z,10.93
2022-10-07T22:30:28.695Z,10.99
2022-10-07T22:33:32.025Z,10.96
2022-10-07T22:36:37.411Z,10.95
2022-10-07T22:39:41.127Z,10.91
2022-10-07T22:42:46.997Z,10.75
2022-10-07T22:45:57.780Z,10.74
2022-10-07T22:49:00.681Z,10.60
2022-10-07T22:52:03.047Z,10.75
2022-10-07T22:55:08.389Z,10.81
2022-10-07T22:58:10.885Z,10.76
2022-10-07T23:01:14.732Z,10.85
2022-10-07T23:04:20.152Z,10.92
2022-10-07T23:07:22.628Z,10.71
2022-10-07T23:10:25.088Z,10.52
2022-10-07T23:13:28.521Z,10.41
2022-10-07T23:16:32.402Z,10.61
2022-10-07T23:19:34.712Z,10.15
2022-10-07T23:22:40.051Z,9.87
2022-10-07T23:25:43.375Z,9.93
2022-10-07T23:28:49.776Z,9.83
2022-10-07T23:31:52.431Z,9.87
2022-10-07T23:34:54.749Z,9.80
2022-10-07T23:37:58.494Z,9.86
2022-10-07T23:41:04.556Z,9.80
2022-10-07T23:44:07.018Z,9.58
2022-10-07T23:47:09.429Z,9.68
2022-10-07T23:50:13.278Z,9.82
2022-10-07T23:53:16.998Z,9.70
2022-10-07T23:56:19.517Z,9.68
2022-10-07T23:59:22.152Z,9.75
